メインページ
METAR-TAF:

METAR-TAF

空港 :

カイエンヌ・フェリックス・エブエ国際空港

カイエンヌ, フランス領ギアナ

緯度: 04-50N, 経度: 052-22W, 海抜: 105m

現時点の気象観測

当レポートは26分前の13:00(UTC)に作成
北東の風 12kt
気温 28°C
湿度 74%
気圧 1015 hPa
視程10km以上
高度2000ftの千切れ雲あり
高度2600ftの千切れ雲あり
高度3500ftの曇り

METAR: SOCA 201300Z AUTO 04012KT 9999 BKN020 BKN026 OVC035 28/23 Q1015 NOSIG

時間: 10:26 (13:26 UTC)

予報

当レポートは3時間26分前の10:00(UTC)に作成
予報は20日の 12時(UTC)から 21日の 12時(UTC)まで有効
東/北東の風 10kt
視程10km以上
高度2300ftの雲は散在している
20日の 22時(UTC)から 20日の 23時(UTC)まで徐々に
変向風 3kt
確率 30% :
21日の 00時(UTC)から 21日の 09時(UTC)まで一時的に
視程: 4000m
高度1200ftの雲はほとんどない, 塔状積雲.
にわか雨

TAF: SOCA 201000Z 2012/2112 07010KT 9999 SCT023 BECMG 2022/2023 VRB03KT PROB30 TEMPO 2100/2109 4000 SHRA FEW012TCU

4,000以上の空港の気象観測と天気予報(METAR報とTAF報)

利用可能な観測所は地図上に黄色い丸と赤い丸で示す。

丸の上にカーソルを重ねると観測所名を参照できる。

次にクリックすると気象観測と天気予報を参照できる。

マップの切り替え:黒色「×」印の緑ボタンをクリックして拡大、「-」印の緑ボタンをクリックして縮小、緑色の三角印をクリックして隣りの地図に切り替え


METAR-TAF: